createdAt,value
2023-02-08T00:01:16.625Z,103288.72
2023-02-08T00:03:43.223Z,103283.06
2023-02-08T00:06:10.685Z,103293.75
2023-02-08T00:08:37.732Z,103285.31
2023-02-08T00:11:05.715Z,103284.66
2023-02-08T00:13:33.015Z,103278.84
2023-02-08T00:16:18.851Z,103281.06
2023-02-08T00:18:45.517Z,103275.84
2023-02-08T00:21:15.660Z,103273.56
2023-02-08T00:23:42.416Z,103272.13
2023-02-08T00:26:09.521Z,103264.13
2023-02-08T00:28:37.798Z,103279.47
2023-02-08T00:31:05.414Z,103269.75
2023-02-08T00:33:32.091Z,103274.09
2023-02-08T00:36:04.610Z,103264.22
2023-02-08T00:38:31.213Z,103265.66
2023-02-08T00:40:57.742Z,103261.22
2023-02-08T00:43:24.270Z,103263.69
2023-02-08T00:45:55.511Z,103265.72
2023-02-08T00:48:22.233Z,103261.50
2023-02-08T00:51:07.513Z,103264.97
2023-02-08T00:53:38.940Z,103263.75
2023-02-08T00:56:07.262Z,103253.34
2023-02-08T00:58:34.887Z,103258.22
2023-02-08T01:01:03.527Z,103259.94
2023-02-08T01:03:30.024Z,103255.34
2023-02-08T01:06:01.703Z,103253.50
2023-02-08T01:08:28.219Z,103245.69
2023-02-08T01:11:10.135Z,103258.06
2023-02-08T01:13:38.139Z,103259.81
2023-02-08T01:16:15.134Z,103248.41
2023-02-08T01:19:01.830Z,103247.78
2023-02-08T01:21:49.150Z,103249.84
2023-02-08T01:24:15.754Z,103245.25
2023-02-08T01:27:00.879Z,103244.25
2023-02-08T01:29:47.636Z,103232.63
2023-02-08T01:32:34.446Z,103255.78
2023-02-08T01:35:21.176Z,103248.59
2023-02-08T01:38:08.002Z,103247.19
2023-02-08T01:40:55.018Z,103244.47
2023-02-08T01:44:02.125Z,103248.69
2023-02-08T01:46:51.119Z,103247.41
2023-02-08T01:49:37.996Z,103236.72
2023-02-08T01:52:21.990Z,103235.06
2023-02-08T01:54:56.206Z,103232.63
2023-02-08T01:57:42.898Z,103234.59
2023-02-08T02:00:28.383Z,103231.34
2023-02-08T02:03:14.388Z,103219.91
2023-02-08T02:06:14.088Z,103229.28
2023-02-08T02:09:17.626Z,103216.16
2023-02-08T02:12:07.753Z,103232.72
2023-02-08T02:14:55.267Z,103227.31
2023-02-08T02:17:42.260Z,103227.41
2023-02-08T02:20:29.240Z,103225.25
2023-02-08T02:23:16.883Z,103234.00
2023-02-08T02:25:58.380Z,103231.59
2023-02-08T02:28:36.433Z,103236.78
2023-02-08T02:31:23.477Z,103231.59
2023-02-08T02:34:23.200Z,103232.50
2023-02-08T02:37:15.891Z,103228.78
2023-02-08T02:40:08.493Z,103233.16
2023-02-08T02:43:07.270Z,103238.47
2023-02-08T02:45:39.870Z,103229.56
2023-02-08T02:48:17.180Z,103229.50
2023-02-08T02:51:31.759Z,103230.00
2023-02-08T02:54:25.649Z,103230.00
2023-02-08T02:57:16.085Z,103228.72
2023-02-08T03:00:08.729Z,103224.59
2023-02-08T03:02:56.094Z,103209.38
2023-02-08T03:05:42.928Z,103230.66
2023-02-08T03:09:09.879Z,103228.84
2023-02-08T03:12:34.412Z,103222.16
2023-02-08T03:15:51.811Z,103223.03
2023-02-08T03:18:33.592Z,103227.72
2023-02-08T03:21:19.296Z,103226.91
2023-02-08T03:24:01.611Z,103219.44
2023-02-08T03:27:12.276Z,103229.25
2023-02-08T03:30:10.901Z,103225.66
2023-02-08T03:32:40.334Z,103230.16
2023-02-08T03:35:15.334Z,103234.56
2023-02-08T03:37:58.253Z,103228.47
2023-02-08T03:40:31.072Z,103239.97
2023-02-08T03:43:03.474Z,103237.53
2023-02-08T03:46:03.123Z,103239.03
2023-02-08T03:48:31.800Z,103233.03
2023-02-08T03:51:01.895Z,103229.25
2023-02-08T03:53:32.477Z,103234.34
2023-02-08T03:56:04.988Z,103232.00
2023-02-08T03:58:38.600Z,103230.44
2023-02-08T04:01:31.967Z,103215.69
2023-02-08T04:03:59.837Z,103229.28
2023-02-08T04:06:26.692Z,103224.75
2023-02-08T04:08:56.418Z,103229.03
2023-02-08T04:11:53.098Z,103230.13
2023-02-08T04:14:38.158Z,103228.41
2023-02-08T04:17:06.026Z,103225.66
2023-02-08T04:19:51.278Z,103221.94
2023-02-08T04:22:18.671Z,103215.84
2023-02-08T04:25:04.394Z,103225.22
2023-02-08T04:27:56.736Z,103211.97
2023-02-08T04:30:42.004Z,103215.78
2023-02-08T04:33:27.333Z,103205.31
2023-02-08T04:36:12.737Z,103218.38
2023-02-08T04:38:57.600Z,103213.25
2023-02-08T04:41:24.089Z,103213.19
2023-02-08T04:43:50.541Z,103225.50
2023-02-08T04:46:35.499Z,103224.81
2023-02-08T04:49:21.022Z,103227.66
2023-02-08T04:52:06.706Z,103228.53
2023-02-08T04:54:53.481Z,103223.81
2023-02-08T04:57:20.096Z,103223.16
2023-02-08T04:59:46.527Z,103214.38
2023-02-08T05:02:12.991Z,103224.19
2023-02-08T05:04:39.469Z,103217.31
2023-02-08T05:07:05.937Z,103222.47
2023-02-08T05:09:33.071Z,103217.84
2023-02-08T05:11:59.587Z,103217.09
2023-02-08T05:14:44.954Z,103218.81
2023-02-08T05:17:19.038Z,103219.84
2023-02-08T05:20:04.913Z,103226.31
2023-02-08T05:22:50.005Z,103221.00
2023-02-08T05:25:35.027Z,103228.03
2023-02-08T05:28:17.204Z,103230.75
2023-02-08T05:31:18.544Z,103229.78
2023-02-08T05:34:03.897Z,103229.66
2023-02-08T05:36:50.734Z,103223.72
2023-02-08T05:39:37.499Z,103223.59
2023-02-08T05:42:24.263Z,103227.84
2023-02-08T05:45:11.068Z,103216.44
2023-02-08T05:47:57.956Z,103225.34
2023-02-08T05:50:44.746Z,103220.22
2023-02-08T05:53:31.765Z,103222.63
2023-02-08T05:56:18.613Z,103224.44
2023-02-08T05:59:05.401Z,103227.16
2023-02-08T06:01:52.165Z,103225.88
2023-02-08T06:04:39.242Z,103224.91
2023-02-08T06:07:26.130Z,103226.53
2023-02-08T06:10:12.902Z,103233.81
2023-02-08T06:12:59.712Z,103221.31
2023-02-08T06:15:46.565Z,103237.03
2023-02-08T06:18:33.358Z,103228.25
2023-02-08T06:21:20.120Z,103221.41
2023-02-08T06:23:46.700Z,103227.50
2023-02-08T06:26:13.291Z,103223.91
2023-02-08T06:29:00.432Z,103223.88
2023-02-08T06:31:45.295Z,103236.16
2023-02-08T06:34:32.099Z,103240.75
2023-02-08T06:37:02.160Z,103218.81
2023-02-08T06:39:29.660Z,103237.34
2023-02-08T06:41:56.132Z,103245.28
2023-02-08T06:44:22.661Z,103246.91
2023-02-08T06:46:49.442Z,103243.97
2023-02-08T06:49:16.187Z,103241.47
2023-02-08T06:51:42.816Z,103237.94
2023-02-08T06:54:10.035Z,103245.84
2023-02-08T06:56:36.719Z,103235.22
2023-02-08T06:59:21.983Z,103240.53
2023-02-08T07:01:48.451Z,103240.44
2023-02-08T07:04:14.945Z,103232.16
2023-02-08T07:06:41.437Z,103236.00
2023-02-08T07:09:26.580Z,103237.59
2023-02-08T07:12:12.121Z,103232.38
2023-02-08T07:14:41.371Z,103236.50
2023-02-08T07:17:07.956Z,103212.63
2023-02-08T07:19:34.526Z,103217.88
2023-02-08T07:22:07.941Z,103216.44
2023-02-08T07:24:52.833Z,103219.97
2023-02-08T07:27:38.119Z,103217.31
2023-02-08T07:30:05.858Z,103215.69
2023-02-08T07:32:34.758Z,103214.38
2023-02-08T07:35:19.820Z,103217.88
2023-02-08T07:38:04.802Z,103209.75
2023-02-08T07:40:32.125Z,103215.94
2023-02-08T07:42:58.635Z,103214.38
2023-02-08T07:45:25.741Z,103208.72
2023-02-08T07:47:52.252Z,103209.38
2023-02-08T07:50:37.225Z,103196.97
2023-02-08T07:53:03.761Z,103210.31
2023-02-08T07:55:32.213Z,103210.88
2023-02-08T07:58:17.541Z,103214.38
2023-02-08T08:00:44.376Z,103209.25
2023-02-08T08:03:10.891Z,103205.34
2023-02-08T08:05:41.077Z,103210.19
2023-02-08T08:08:26.283Z,103209.16
2023-02-08T08:10:52.935Z,103205.69
2023-02-08T08:13:19.391Z,103199.16
2023-02-08T08:15:47.345Z,103198.88
2023-02-08T08:18:14.163Z,103193.44
2023-02-08T08:20:40.961Z,103195.16
2023-02-08T08:23:07.915Z,103194.22
2023-02-08T08:25:34.522Z,103206.44
2023-02-08T08:28:02.059Z,103200.91
2023-02-08T08:30:28.602Z,103201.72
2023-02-08T08:32:55.046Z,103197.06
2023-02-08T08:35:35.327Z,103199.25
2023-02-08T08:38:01.816Z,103183.78
2023-02-08T08:40:29.793Z,103193.94
2023-02-08T08:43:15.942Z,103190.22
2023-02-08T08:45:42.526Z,103188.13
2023-02-08T08:48:09.546Z,103187.06
2023-02-08T08:50:36.064Z,103193.75
2023-02-08T08:53:22.094Z,103188.97
2023-02-08T08:56:07.319Z,103190.72
2023-02-08T08:58:52.446Z,103190.44
2023-02-08T09:01:38.862Z,103190.31
2023-02-08T09:04:05.509Z,103193.56
2023-02-08T09:06:32.165Z,103175.22
2023-02-08T09:08:58.654Z,103187.41
2023-02-08T09:11:25.826Z,103186.28
2023-02-08T09:13:55.388Z,103186.97
2023-02-08T09:16:23.989Z,103184.94
2023-02-08T09:18:50.852Z,103177.91
2023-02-08T09:21:21.033Z,103182.84
2023-02-08T09:23:48.118Z,103189.69
2023-02-08T09:26:18.063Z,103189.63
2023-02-08T09:28:44.827Z,103186.03
2023-02-08T09:31:18.652Z,103188.75
2023-02-08T09:33:45.220Z,103191.34
2023-02-08T09:36:11.723Z,103195.69
2023-02-08T09:38:42.047Z,103185.03
2023-02-08T09:41:42.646Z,103186.59
2023-02-08T09:44:20.347Z,103188.94
2023-02-08T09:47:18.469Z,103181.69
2023-02-08T09:50:14.095Z,103189.28
2023-02-08T09:52:45.540Z,103177.47
2023-02-08T09:55:36.897Z,103181.53
2023-02-08T09:58:15.678Z,103173.47
2023-02-08T10:00:45.667Z,103176.84
2023-02-08T10:03:27.946Z,103173.19
2023-02-08T10:05:54.921Z,103177.44
2023-02-08T10:08:22.914Z,103174.56
2023-02-08T10:10:58.992Z,103178.69
2023-02-08T10:13:56.764Z,103175.75
2023-02-08T10:16:35.862Z,103177.31
2023-02-08T10:19:16.972Z,103177.03
2023-02-08T10:22:00.323Z,103183.00
2023-02-08T10:24:45.327Z,103182.72
2023-02-08T10:27:17.806Z,103172.69
2023-02-08T10:30:15.310Z,103166.28
2023-02-08T10:33:02.609Z,103173.13
2023-02-08T10:35:39.976Z,103164.38
2023-02-08T10:38:45.350Z,103167.56
2023-02-08T10:44:36.212Z,103167.91
2023-02-08T10:47:42.900Z,103174.75
2023-02-08T10:50:46.447Z,103159.28
2023-02-08T10:53:18.469Z,103155.69
2023-02-08T10:55:51.848Z,103152.94
2023-02-08T10:58:28.053Z,103150.81
2023-02-08T11:00:55.483Z,103146.28
2023-02-08T11:04:04.103Z,103138.34
2023-02-08T11:06:34.941Z,103143.03
2023-02-08T11:09:01.774Z,103132.94
2023-02-08T11:11:38.565Z,103139.84
2023-02-08T11:14:22.272Z,103145.81
2023-02-08T11:17:03.072Z,103149.25
2023-02-08T11:19:49.246Z,103140.94
2023-02-08T11:22:22.221Z,103141.66
2023-02-08T11:25:04.443Z,103143.91
2023-02-08T11:28:02.377Z,103127.03
2023-02-08T11:30:29.326Z,103143.81
2023-02-08T11:33:21.892Z,103137.31
2023-02-08T11:35:57.694Z,103132.97
2023-02-08T11:38:29.407Z,103131.59
2023-02-08T11:41:00.891Z,103121.63
2023-02-08T11:43:36.897Z,103115.38
2023-02-08T11:46:06.607Z,103113.03
2023-02-08T11:48:42.806Z,103112.34
2023-02-08T11:51:13.237Z,103099.75
2023-02-08T11:53:45.958Z,103064.50
2023-02-08T11:56:27.728Z,103088.34
2023-02-08T11:58:57.160Z,103091.97
2023-02-08T12:01:29.381Z,103085.84
2023-02-08T12:03:59.441Z,103083.00
2023-02-08T12:06:37.784Z,103084.19
2023-02-08T12:09:18.518Z,103091.22
2023-02-08T12:11:48.161Z,103083.88
2023-02-08T12:14:18.499Z,103077.28
2023-02-08T12:17:00.110Z,103068.34
2023-02-08T12:19:53.336Z,103060.13
2023-02-08T12:22:27.755Z,103066.88
2023-02-08T12:25:20.348Z,103054.31
2023-02-08T12:28:25.230Z,103024.13
2023-02-08T12:31:01.840Z,103048.25
2023-02-08T12:33:35.944Z,103043.78
2023-02-08T12:36:26.986Z,103039.88
2023-02-08T12:39:26.024Z,103035.00
2023-02-08T12:42:11.234Z,103026.69
2023-02-08T12:45:05.322Z,103022.22
2023-02-08T12:48:04.005Z,103011.00
2023-02-08T12:50:51.151Z,103002.88
2023-02-08T12:53:31.624Z,103009.59
2023-02-08T12:56:02.135Z,103013.75
2023-02-08T12:58:45.595Z,103009.56
2023-02-08T13:01:23.072Z,103003.63
2023-02-08T13:04:16.420Z,103013.97
2023-02-08T13:07:14.811Z,103002.50
2023-02-08T13:10:06.429Z,103004.97
2023-02-08T13:12:56.793Z,102994.75
2023-02-08T13:15:36.265Z,102992.81
2023-02-08T13:18:12.639Z,102994.53
2023-02-08T13:20:51.296Z,102984.47
2023-02-08T13:23:29.743Z,102978.28
2023-02-08T13:26:01.845Z,102976.84
2023-02-08T13:28:29.000Z,102984.38
2023-02-08T13:31:11.444Z,102968.28
2023-02-08T13:33:55.619Z,102969.53
2023-02-08T13:37:01.912Z,102964.78
2023-02-08T13:39:48.952Z,102956.16
2023-02-08T13:42:30.458Z,102947.72
2023-02-08T13:45:26.930Z,102950.91
2023-02-08T13:48:00.824Z,102952.88
2023-02-08T13:50:50.864Z,102939.00
2023-02-08T13:53:37.826Z,102941.41
2023-02-08T13:56:09.554Z,102941.59
2023-02-08T13:58:48.801Z,102936.22
2023-02-08T14:01:22.729Z,102939.09
2023-02-08T14:04:07.589Z,102926.84
2023-02-08T14:07:11.122Z,102921.47
2023-02-08T14:10:01.862Z,102914.38
2023-02-08T14:13:06.915Z,102890.06
2023-02-08T14:15:44.128Z,102897.63
2023-02-08T14:18:30.297Z,102893.00
2023-02-08T14:21:33.544Z,102916.63
2023-02-08T14:25:02.324Z,102904.06
2023-02-08T14:27:57.157Z,102914.97
2023-02-08T14:30:30.255Z,102907.38
2023-02-08T14:33:08.427Z,102906.41
2023-02-08T14:35:38.916Z,102903.53
2023-02-08T14:38:20.680Z,102907.19
2023-02-08T14:40:50.380Z,102910.81
2023-02-08T14:43:19.770Z,102908.59
2023-02-08T14:45:50.808Z,102899.66
2023-02-08T14:48:42.532Z,102900.44
2023-02-08T14:51:11.989Z,102896.78
2023-02-08T14:53:57.308Z,102894.31
2023-02-08T14:56:33.709Z,102887.31
2023-02-08T14:59:06.600Z,102886.16
2023-02-08T15:01:48.812Z,102877.56
2023-02-08T15:04:18.103Z,102883.75
2023-02-08T15:07:14.548Z,102877.84
2023-02-08T15:09:43.454Z,102883.03
2023-02-08T15:12:31.644Z,102882.72
2023-02-08T15:15:00.861Z,102869.59
2023-02-08T15:17:57.238Z,102873.91
2023-02-08T15:20:27.628Z,102864.03
2023-02-08T15:23:18.697Z,102864.44
2023-02-08T15:25:55.023Z,102864.66
2023-02-08T15:28:24.191Z,102869.94
2023-02-08T15:31:10.786Z,102872.81
2023-02-08T15:33:39.302Z,102873.31
2023-02-08T15:36:16.278Z,102861.19
2023-02-08T15:38:44.930Z,102862.47
2023-02-08T15:41:33.827Z,102867.94
2023-02-08T15:44:23.127Z,102864.41
2023-02-08T15:49:30.247Z,102851.28
2023-02-08T15:51:57.755Z,102858.38
2023-02-08T15:54:24.928Z,102851.50
2023-02-08T15:56:59.377Z,102854.56
2023-02-08T15:59:29.272Z,102847.69
2023-02-08T16:01:58.270Z,102852.19
2023-02-08T16:04:25.736Z,102840.81
2023-02-08T16:07:00.622Z,102840.25
2023-02-08T16:09:28.926Z,102845.81
2023-02-08T16:11:59.188Z,102837.59
2023-02-08T16:14:29.842Z,102835.19
2023-02-08T16:16:58.290Z,102834.50
2023-02-08T16:19:29.133Z,102826.88
2023-02-08T16:22:25.786Z,102825.25
2023-02-08T16:24:52.403Z,102828.25
2023-02-08T16:27:30.084Z,102833.78
2023-02-08T16:29:57.074Z,102824.44
2023-02-08T16:32:39.569Z,102815.25
2023-02-08T16:35:29.462Z,102819.06
2023-02-08T16:38:02.626Z,102815.84
2023-02-08T16:41:12.603Z,102819.00
2023-02-08T16:43:47.738Z,102820.25
2023-02-08T16:46:14.879Z,102829.25
2023-02-08T16:48:42.511Z,102826.84
2023-02-08T16:51:16.710Z,102829.81
2023-02-08T16:53:47.624Z,102817.06
2023-02-08T16:56:14.676Z,102825.78
2023-02-08T16:58:41.266Z,102826.94
2023-02-08T17:01:14.005Z,102824.34
2023-02-08T17:03:57.379Z,102824.53
2023-02-08T17:06:30.153Z,102821.19
2023-02-08T17:09:25.616Z,102741.03
2023-02-08T17:12:21.862Z,102815.44
2023-02-08T17:15:07.873Z,102804.91
2023-02-08T17:17:54.359Z,102807.69
2023-02-08T17:20:40.240Z,102797.25
2023-02-08T17:23:27.179Z,102797.16
2023-02-08T17:26:17.459Z,102793.72
2023-02-08T17:29:04.483Z,102792.88
2023-02-08T17:31:51.292Z,102787.69
2023-02-08T17:34:39.529Z,102759.50
2023-02-08T17:37:26.366Z,102780.03
2023-02-08T17:40:14.365Z,102777.06
2023-02-08T17:43:01.745Z,102783.94
2023-02-08T17:45:48.578Z,102778.09
2023-02-08T17:48:35.345Z,102785.09
2023-02-08T17:51:24.024Z,102778.78
2023-02-08T17:54:12.156Z,102786.91
2023-02-08T17:56:59.773Z,102785.38
2023-02-08T17:59:46.756Z,102785.47
2023-02-08T18:02:33.597Z,102782.09
2023-02-08T18:05:24.152Z,102776.84
2023-02-08T18:08:10.902Z,102780.66
2023-02-08T18:11:06.234Z,102778.75
2023-02-08T18:13:54.202Z,102778.94
2023-02-08T18:16:41.146Z,102779.03
2023-02-08T18:19:07.801Z,102781.09
2023-02-08T18:21:52.647Z,102774.22
2023-02-08T18:24:54.118Z,102770.03
2023-02-08T18:27:40.010Z,102761.00
2023-02-08T18:30:07.729Z,102767.69
2023-02-08T18:32:34.214Z,102778.56
2023-02-08T18:35:03.432Z,102773.41
2023-02-08T18:37:30.656Z,102777.13
2023-02-08T18:39:57.229Z,102779.13
2023-02-08T18:42:23.691Z,102782.06
2023-02-08T18:44:50.244Z,102765.69
2023-02-08T18:47:16.771Z,102785.19
2023-02-08T18:49:43.325Z,102781.72
2023-02-08T18:52:11.819Z,102776.84
2023-02-08T18:54:56.904Z,102776.31
2023-02-08T18:57:23.490Z,102778.41
2023-02-08T18:59:50.029Z,102782.09
2023-02-08T19:02:36.548Z,102771.50
2023-02-08T19:05:21.344Z,102772.63
2023-02-08T19:07:47.846Z,102763.25
2023-02-08T19:10:14.357Z,102767.13
2023-02-08T19:12:58.083Z,102771.78
2023-02-08T19:15:44.708Z,102771.59
2023-02-08T19:18:32.924Z,102770.06
2023-02-08T19:21:20.106Z,102766.63
2023-02-08T19:23:48.245Z,102766.63
2023-02-08T19:26:36.939Z,102758.50
2023-02-08T19:29:22.755Z,102759.63
2023-02-08T19:32:09.562Z,102762.72
2023-02-08T19:34:56.988Z,102744.56
2023-02-08T19:37:45.558Z,102763.59
2023-02-08T19:40:32.396Z,102761.72
2023-02-08T19:43:19.143Z,102756.00
2023-02-08T19:45:46.306Z,102757.91
2023-02-08T19:48:31.653Z,102756.00
2023-02-08T19:51:17.873Z,102761.53
2023-02-08T19:54:08.476Z,102742.56
2023-02-08T19:56:55.770Z,102759.28
2023-02-08T19:59:43.506Z,102753.69
2023-02-08T20:02:30.267Z,102747.47
2023-02-08T20:05:17.133Z,102748.06
2023-02-08T20:08:04.064Z,102742.66
2023-02-08T20:10:50.845Z,102740.59
2023-02-08T20:13:37.743Z,102730.84
2023-02-08T20:16:25.060Z,102744.19
2023-02-08T20:19:13.096Z,102738.50
2023-02-08T20:21:59.901Z,102745.13
2023-02-08T20:24:46.929Z,102742.13
2023-02-08T20:27:33.752Z,102733.88
2023-02-08T20:30:00.741Z,102734.03
2023-02-08T20:32:27.579Z,102745.63
2023-02-08T20:34:59.890Z,102749.25
2023-02-08T20:37:28.456Z,102740.22
2023-02-08T20:40:15.382Z,102740.38
2023-02-08T20:42:41.913Z,102734.03
2023-02-08T20:45:08.964Z,102723.69
2023-02-08T20:47:45.971Z,102731.06
2023-02-08T20:50:19.520Z,102716.06
2023-02-08T20:52:49.007Z,102721.41
2023-02-08T20:55:34.371Z,102731.19
2023-02-08T20:58:00.854Z,102732.94
2023-02-08T21:00:36.756Z,102711.22
2023-02-08T21:03:08.284Z,102729.72
2023-02-08T21:05:34.812Z,102726.28
2023-02-08T21:08:01.276Z,102727.38
2023-02-08T21:10:27.706Z,102730.84
2023-02-08T21:12:54.254Z,102739.63
2023-02-08T21:15:20.794Z,102734.53
2023-02-08T21:17:47.337Z,102727.22
2023-02-08T21:20:15.032Z,102730.84
2023-02-08T21:22:41.766Z,102728.66
2023-02-08T21:25:26.764Z,102733.66
2023-02-08T21:27:53.331Z,102717.28
2023-02-08T21:30:20.558Z,102729.59
2023-02-08T21:32:47.010Z,102733.91
2023-02-08T21:35:13.490Z,102729.13
2023-02-08T21:37:40.761Z,102737.84
2023-02-08T21:40:07.419Z,102723.72
2023-02-08T21:42:33.906Z,102732.09
2023-02-08T21:45:00.417Z,102725.28
2023-02-08T21:47:26.943Z,102724.88
2023-02-08T21:50:12.151Z,102731.47
2023-02-08T21:52:57.219Z,102713.91
2023-02-08T21:55:23.759Z,102718.56
2023-02-08T21:57:51.535Z,102709.94
2023-02-08T22:00:18.132Z,102714.22
2023-02-08T22:02:44.847Z,102711.66
2023-02-08T22:05:29.934Z,102705.63
2023-02-08T22:07:57.889Z,102707.34
2023-02-08T22:10:27.678Z,102711.28
2023-02-08T22:12:55.157Z,102706.75
2023-02-08T22:15:25.287Z,102713.69
2023-02-08T22:17:55.581Z,102714.97
2023-02-08T22:20:22.346Z,102708.91
2023-02-08T22:22:52.630Z,102712.53
2023-02-08T22:25:21.156Z,102705.09
2023-02-08T22:28:23.899Z,102675.41
2023-02-08T22:30:50.905Z,102707.13
2023-02-08T22:33:17.461Z,102712.41
2023-02-08T22:35:43.932Z,102708.63
2023-02-08T22:38:13.081Z,102701.00
2023-02-08T22:40:41.718Z,102692.56
2023-02-08T22:43:08.231Z,102696.41
2023-02-08T22:45:34.775Z,102706.19
2023-02-08T22:48:01.274Z,102720.19
2023-02-08T22:50:27.822Z,102716.47
2023-02-08T22:52:54.316Z,102710.19
2023-02-08T22:55:25.672Z,102709.53
2023-02-08T22:57:52.188Z,102701.88
2023-02-08T23:00:18.769Z,102716.19
2023-02-08T23:02:45.364Z,102711.19
2023-02-08T23:05:12.042Z,102719.56
2023-02-08T23:07:38.591Z,102720.97
2023-02-08T23:10:05.192Z,102718.88
2023-02-08T23:12:31.716Z,102715.94
2023-02-08T23:14:58.155Z,102718.22
2023-02-08T23:17:24.756Z,102716.59
2023-02-08T23:19:52.524Z,102696.59
2023-02-08T23:22:19.012Z,102705.75
2023-02-08T23:24:45.612Z,102705.81
2023-02-08T23:27:12.175Z,102706.56
2023-02-08T23:29:38.689Z,102713.94
2023-02-08T23:32:05.266Z,102713.94
2023-02-08T23:34:34.162Z,102697.91
2023-02-08T23:37:14.903Z,102700.34
2023-02-08T23:39:41.655Z,102707.41
2023-02-08T23:42:25.273Z,102710.78
2023-02-08T23:44:56.315Z,102710.84
2023-02-08T23:47:24.386Z,102697.22
2023-02-08T23:49:51.455Z,102691.38
2023-02-08T23:52:18.120Z,102694.69
2023-02-08T23:54:51.114Z,102693.25
2023-02-08T23:57:18.499Z,102699.28
2023-02-08T23:59:44.971Z,102690.31
